sensor_id;sensor_type;location;lat;lon;timestamp;P1;durP1;ratioP1;P2;durP2;ratioP2
47812;SDS011;34221;45.296;9.516;2023-01-10T00:00:12;4.75;;;2.80;;
47812;SDS011;34221;45.296;9.516;2023-01-10T00:00:28;4.85;;;2.80;;
47812;SDS011;34221;45.296;9.516;2023-01-10T00:00:48;3.95;;;2.33;;
47812;SDS011;34221;45.296;9.516;2023-01-10T00:01:06;3.53;;;2.13;;
47812;SDS011;34221;45.296;9.516;2023-01-10T00:01:22;4.28;;;2.40;;
47812;SDS011;34221;45.296;9.516;2023-01-10T00:01:36;4.43;;;2.70;;
47812;SDS011;34221;45.296;9.516;2023-01-10T00:01:51;4.40;;;2.60;;
47812;SDS011;34221;45.296;9.516;2023-01-10T00:02:06;4.10;;;2.40;;
47812;SDS011;34221;45.296;9.516;2023-01-10T00:02:21;3.92;;;2.47;;
47812;SDS011;34221;45.296;9.516;2023-01-10T00:02:36;4.28;;;2.20;;
47812;SDS011;34221;45.296;9.516;2023-01-10T00:02:52;4.55;;;2.22;;
47812;SDS011;34221;45.296;9.516;2023-01-10T00:03:08;4.85;;;2.55;;
47812;SDS011;34221;45.296;9.516;2023-01-10T00:03:25;4.55;;;2.80;;
47812;SDS011;34221;45.296;9.516;2023-01-10T00:03:40;5.78;;;2.60;;
47812;SDS011;34221;45.296;9.516;2023-01-10T00:03:54;6.30;;;2.50;;
47812;SDS011;34221;45.296;9.516;2023-01-10T00:04:09;4.95;;;2.47;;
47812;SDS011;34221;45.296;9.516;2023-01-10T00:04:24;3.85;;;2.30;;
47812;SDS011;34221;45.296;9.516;2023-01-10T00:04:39;3.65;;;2.33;;
47812;SDS011;34221;45.296;9.516;2023-01-10T00:04:54;4.32;;;2.60;;
47812;SDS011;34221;45.296;9.516;2023-01-10T00:05:09;4.18;;;2.53;;
47812;SDS011;34221;45.296;9.516;2023-01-10T00:05:24;4.25;;;2.40;;
47812;SDS011;34221;45.296;9.516;2023-01-10T00:05:39;4.03;;;2.40;;
47812;SDS011;34221;45.296;9.516;2023-01-10T00:05:54;3.45;;;2.40;;
47812;SDS011;34221;45.296;9.516;2023-01-10T00:06:09;3.30;;;2.38;;
47812;SDS011;34221;45.296;9.516;2023-01-10T00:06:24;3.38;;;2.22;;
47812;SDS011;34221;45.296;9.516;2023-01-10T00:06:39;3.33;;;2.20;;
47812;SDS011;34221;45.296;9.516;2023-01-10T00:06:54;4.03;;;2.17;;
47812;SDS011;34221;45.296;9.516;2023-01-10T00:07:10;5.13;;;2.30;;
47812;SDS011;34221;45.296;9.516;2023-01-10T00:07:25;4.20;;;2.28;;
47812;SDS011;34221;45.296;9.516;2023-01-10T00:07:39;3.20;;;2.03;;
47812;SDS011;34221;45.296;9.516;2023-01-10T00:07:54;3.67;;;2.25;;
47812;SDS011;34221;45.296;9.516;2023-01-10T00:08:13;4.25;;;2.53;;
47812;SDS011;34221;45.296;9.516;2023-01-10T00:08:30;5.22;;;2.67;;
47812;SDS011;34221;45.296;9.516;2023-01-10T00:08:45;4.17;;;2.33;;
47812;SDS011;34221;45.296;9.516;2023-01-10T00:08:59;5.03;;;2.33;;
47812;SDS011;34221;45.296;9.516;2023-01-10T00:09:14;4.70;;;2.40;;
47812;SDS011;34221;45.296;9.516;2023-01-10T00:09:29;3.55;;;2.45;;
47812;SDS011;34221;45.296;9.516;2023-01-10T00:09:44;3.55;;;2.60;;
47812;SDS011;34221;45.296;9.516;2023-01-10T00:09:59;4.30;;;2.42;;
47812;SDS011;34221;45.296;9.516;2023-01-10T00:10:14;4.70;;;2.10;;
47812;SDS011;34221;45.296;9.516;2023-01-10T00:10:29;3.55;;;2.00;;
47812;SDS011;34221;45.296;9.516;2023-01-10T00:10:46;3.05;;;1.92;;
47812;SDS011;34221;45.296;9.516;2023-01-10T00:11:01;3.63;;;2.20;;
47812;SDS011;34221;45.296;9.516;2023-01-10T00:11:36;6.43;;;2.35;;
47812;SDS011;34221;45.296;9.516;2023-01-10T00:12:09;3.70;;;2.20;;
47812;SDS011;34221;45.296;9.516;2023-01-10T00:12:43;4.30;;;2.10;;
47812;SDS011;34221;45.296;9.516;2023-01-10T00:13:16;3.75;;;2.00;;
47812;SDS011;34221;45.296;9.516;2023-01-10T00:13:37;3.33;;;1.90;;
47812;SDS011;34221;45.296;9.516;2023-01-10T00:13:53;3.30;;;2.03;;
47812;SDS011;34221;45.296;9.516;2023-01-10T00:14:09;3.15;;;2.13;;
47812;SDS011;34221;45.296;9.516;2023-01-10T00:14:26;3.70;;;2.15;;
47812;SDS011;34221;45.296;9.516;2023-01-10T00:14:42;4.22;;;1.95;;
47812;SDS011;34221;45.296;9.516;2023-01-10T00:14:57;3.75;;;1.90;;
47812;SDS011;34221;45.296;9.516;2023-01-10T00:15:12;3.85;;;2.00;;
47812;SDS011;34221;45.296;9.516;2023-01-10T00:15:27;3.58;;;1.90;;
47812;SDS011;34221;45.296;9.516;2023-01-10T00:15:42;3.70;;;1.70;;
47812;SDS011;34221;45.296;9.516;2023-01-10T00:15:57;3.97;;;1.70;;
47812;SDS011;34221;45.296;9.516;2023-01-10T00:16:11;3.72;;;1.75;;
47812;SDS011;34221;45.296;9.516;2023-01-10T00:16:26;3.65;;;2.17;;
47812;SDS011;34221;45.296;9.516;2023-01-10T00:16:41;3.88;;;2.28;;
47812;SDS011;34221;45.296;9.516;2023-01-10T00:16:56;3.85;;;2.05;;
47812;SDS011;34221;45.296;9.516;2023-01-10T00:17:12;3.28;;;1.95;;
47812;SDS011;34221;45.296;9.516;2023-01-10T00:17:31;4.32;;;1.90;;
47812;SDS011;34221;45.296;9.516;2023-01-10T00:17:46;4.82;;;1.95;;
47812;SDS011;34221;45.296;9.516;2023-01-10T00:18:01;3.55;;;2.00;;
47812;SDS011;34221;45.296;9.516;2023-01-10T00:18:17;4.82;;;2.30;;
47812;SDS011;34221;45.296;9.516;2023-01-10T00:18:32;6.75;;;2.38;;
47812;SDS011;34221;45.296;9.516;2023-01-10T00:18:47;5.60;;;2.15;;
47812;SDS011;34221;45.296;9.516;2023-01-10T00:19:02;3.88;;;2.00;;
47812;SDS011;34221;45.296;9.516;2023-01-10T00:19:17;7.60;;;2.03;;
47812;SDS011;34221;45.296;9.516;2023-01-10T00:19:32;7.28;;;1.92;;
47812;SDS011;34221;45.296;9.516;2023-01-10T00:19:47;2.97;;;1.83;;
47812;SDS011;34221;45.296;9.516;2023-01-10T00:20:02;3.53;;;2.08;;
47812;SDS011;34221;45.296;9.516;2023-01-10T00:20:17;3.55;;;2.10;;
47812;SDS011;34221;45.296;9.516;2023-01-10T00:20:32;3.63;;;1.98;;
47812;SDS011;34221;45.296;9.516;2023-01-10T00:20:47;4.20;;;1.90;;
47812;SDS011;34221;45.296;9.516;2023-01-10T00:21:03;4.45;;;1.95;;
47812;SDS011;34221;45.296;9.516;2023-01-10T00:21:20;3.53;;;1.90;;
47812;SDS011;34221;45.296;9.516;2023-01-10T00:21:43;4.47;;;2.40;;
47812;SDS011;34221;45.296;9.516;2023-01-10T00:21:58;4.07;;;2.40;;
47812;SDS011;34221;45.296;9.516;2023-01-10T00:22:19;3.40;;;1.98;;
47812;SDS011;34221;45.296;9.516;2023-01-10T00:22:38;2.78;;;1.95;;
47812;SDS011;34221;45.296;9.516;2023-01-10T00:22:53;2.95;;;1.85;;
47812;SDS011;34221;45.296;9.516;2023-01-10T00:23:08;2.80;;;1.80;;
47812;SDS011;34221;45.296;9.516;2023-01-10T00:23:23;3.40;;;1.98;;
47812;SDS011;34221;45.296;9.516;2023-01-10T00:23:38;4.00;;;2.10;;
47812;SDS011;34221;45.296;9.516;2023-01-10T00:23:54;3.75;;;1.92;;
47812;SDS011;34221;45.296;9.516;2023-01-10T00:24:13;3.47;;;1.80;;
47812;SDS011;34221;45.296;9.516;2023-01-10T00:24:35;2.85;;;1.90;;
47812;SDS011;34221;45.296;9.516;2023-01-10T00:24:51;3.13;;;1.85;;
47812;SDS011;34221;45.296;9.516;2023-01-10T00:25:08;3.75;;;1.70;;
47812;SDS011;34221;45.296;9.516;2023-01-10T00:25:23;3.78;;;1.80;;
47812;SDS011;34221;45.296;9.516;2023-01-10T00:25:38;4.55;;;2.08;;
47812;SDS011;34221;45.296;9.516;2023-01-10T00:25:54;5.05;;;2.10;;
47812;SDS011;34221;45.296;9.516;2023-01-10T00:26:09;4.93;;;2.20;;
47812;SDS011;34221;45.296;9.516;2023-01-10T00:26:24;5.43;;;2.20;;
47812;SDS011;34221;45.296;9.516;2023-01-10T00:26:39;4.70;;;2.27;;
47812;SDS011;34221;45.296;9.516;2023-01-10T00:26:55;3.63;;;2.08;;
47812;SDS011;34221;45.296;9.516;2023-01-10T00:27:10;2.90;;;1.90;;
47812;SDS011;34221;45.296;9.516;2023-01-10T00:27:26;4.07;;;2.25;;
47812;SDS011;34221;45.296;9.516;2023-01-10T00:27:41;4.72;;;2.08;;
47812;SDS011;34221;45.296;9.516;2023-01-10T00:28:18;4.00;;;1.77;;
47812;SDS011;34221;45.296;9.516;2023-01-10T00:28:33;3.75;;;1.70;;
47812;SDS011;34221;45.296;9.516;2023-01-10T00:28:50;4.93;;;2.30;;
47812;SDS011;34221;45.296;9.516;2023-01-10T00:29:05;4.60;;;2.28;;
47812;SDS011;34221;45.296;9.516;2023-01-10T00:29:22;3.20;;;1.83;;
47812;SDS011;34221;45.296;9.516;2023-01-10T00:29:41;3.78;;;1.80;;
47812;SDS011;34221;45.296;9.516;2023-01-10T00:29:56;4.10;;;1.67;;
47812;SDS011;34221;45.296;9.516;2023-01-10T00:30:14;3.15;;;1.60;;
47812;SDS011;34221;45.296;9.516;2023-01-10T00:30:29;2.92;;;1.73;;
47812;SDS011;34221;45.296;9.516;2023-01-10T00:30:51;3.50;;;1.80;;
47812;SDS011;34221;45.296;9.516;2023-01-10T00:31:20;4.45;;;1.85;;
47812;SDS011;34221;45.296;9.516;2023-01-10T00:31:34;4.57;;;1.83;;
47812;SDS011;34221;45.296;9.516;2023-01-10T00:31:49;3.73;;;1.90;;
47812;SDS011;34221;45.296;9.516;2023-01-10T00:32:04;3.85;;;2.03;;
47812;SDS011;34221;45.296;9.516;2023-01-10T00:32:19;4.20;;;2.00;;
47812;SDS011;34221;45.296;9.516;2023-01-10T00:32:35;4.25;;;2.00;;
47812;SDS011;34221;45.296;9.516;2023-01-10T00:32:50;4.47;;;2.00;;
47812;SDS011;34221;45.296;9.516;2023-01-10T00:33:05;3.63;;;1.95;;
47812;SDS011;34221;45.296;9.516;2023-01-10T00:33:21;3.20;;;1.95;;
47812;SDS011;34221;45.296;9.516;2023-01-10T00:33:36;5.32;;;2.10;;
47812;SDS011;34221;45.296;9.516;2023-01-10T00:33:51;5.38;;;1.98;;
47812;SDS011;34221;45.296;9.516;2023-01-10T00:34:06;3.30;;;1.65;;
47812;SDS011;34221;45.296;9.516;2023-01-10T00:34:21;3.03;;;1.80;;
47812;SDS011;34221;45.296;9.516;2023-01-10T00:34:37;2.70;;;2.08;;
47812;SDS011;34221;45.296;9.516;2023-01-10T00:34:52;2.90;;;1.90;;
47812;SDS011;34221;45.296;9.516;2023-01-10T00:35:07;3.35;;;1.58;;
47812;SDS011;34221;45.296;9.516;2023-01-10T00:35:22;3.10;;;1.63;;
47812;SDS011;34221;45.296;9.516;2023-01-10T00:35:37;2.85;;;1.70;;
47812;SDS011;34221;45.296;9.516;2023-01-10T00:35:52;2.97;;;1.60;;
47812;SDS011;34221;45.296;9.516;2023-01-10T00:36:09;3.10;;;1.83;;
47812;SDS011;34221;45.296;9.516;2023-01-10T00:36:24;4.07;;;2.30;;
47812;SDS011;34221;45.296;9.516;2023-01-10T00:36:39;4.43;;;2.40;;
47812;SDS011;34221;45.296;9.516;2023-01-10T00:36:55;4.55;;;2.35;;
47812;SDS011;34221;45.296;9.516;2023-01-10T00:37:10;3.85;;;2.10;;
47812;SDS011;34221;45.296;9.516;2023-01-10T00:37:25;3.65;;;1.95;;
47812;SDS011;34221;45.296;9.516;2023-01-10T00:37:40;4.55;;;1.90;;
47812;SDS011;34221;45.296;9.516;2023-01-10T00:37:55;3.67;;;1.80;;
47812;SDS011;34221;45.296;9.516;2023-01-10T00:38:19;2.85;;;1.80;;
47812;SDS011;34221;45.296;9.516;2023-01-10T00:38:34;4.65;;;1.92;;
47812;SDS011;34221;45.296;9.516;2023-01-10T00:38:49;6.35;;;2.15;;
47812;SDS011;34221;45.296;9.516;2023-01-10T00:39:04;4.90;;;1.95;;
47812;SDS011;34221;45.296;9.516;2023-01-10T00:39:19;3.20;;;1.70;;
47812;SDS011;34221;45.296;9.516;2023-01-10T00:39:34;4.03;;;1.88;;
47812;SDS011;34221;45.296;9.516;2023-01-10T00:39:49;4.30;;;1.83;;
47812;SDS011;34221;45.296;9.516;2023-01-10T00:40:05;4.25;;;2.10;;
47812;SDS011;34221;45.296;9.516;2023-01-10T00:40:22;3.72;;;2.03;;
47812;SDS011;34221;45.296;9.516;2023-01-10T00:40:37;3.03;;;1.85;;
47812;SDS011;34221;45.296;9.516;2023-01-10T00:40:53;3.15;;;1.95;;
47812;SDS011;34221;45.296;9.516;2023-01-10T00:41:08;2.88;;;1.83;;
47812;SDS011;34221;45.296;9.516;2023-01-10T00:41:43;4.93;;;1.70;;
47812;SDS011;34221;45.296;9.516;2023-01-10T00:42:16;3.20;;;1.80;;
47812;SDS011;34221;45.296;9.516;2023-01-10T00:42:50;3.65;;;2.20;;
47812;SDS011;34221;45.296;9.516;2023-01-10T00:43:24;3.83;;;1.75;;
47812;SDS011;34221;45.296;9.516;2023-01-10T00:43:57;2.97;;;1.70;;
47812;SDS011;34221;45.296;9.516;2023-01-10T00:44:12;3.08;;;1.83;;
47812;SDS011;34221;45.296;9.516;2023-01-10T00:44:27;3.08;;;1.70;;
47812;SDS011;34221;45.296;9.516;2023-01-10T00:44:42;3.08;;;1.58;;
47812;SDS011;34221;45.296;9.516;2023-01-10T00:44:59;2.70;;;1.48;;
47812;SDS011;34221;45.296;9.516;2023-01-10T00:45:14;2.40;;;1.50;;
47812;SDS011;34221;45.296;9.516;2023-01-10T00:45:29;3.25;;;1.92;;
47812;SDS011;34221;45.296;9.516;2023-01-10T00:45:45;3.35;;;2.00;;
47812;SDS011;34221;45.296;9.516;2023-01-10T00:46:00;3.45;;;1.70;;
47812;SDS011;34221;45.296;9.516;2023-01-10T00:46:16;3.70;;;1.67;;
47812;SDS011;34221;45.296;9.516;2023-01-10T00:46:30;5.13;;;1.77;;
47812;SDS011;34221;45.296;9.516;2023-01-10T00:46:45;6.85;;;1.85;;
47812;SDS011;34221;45.296;9.516;2023-01-10T00:47:00;5.85;;;1.85;;
47812;SDS011;34221;45.296;9.516;2023-01-10T00:47:15;4.07;;;1.95;;
47812;SDS011;34221;45.296;9.516;2023-01-10T00:47:31;3.33;;;1.90;;
47812;SDS011;34221;45.296;9.516;2023-01-10T00:47:47;4.47;;;1.98;;
47812;SDS011;34221;45.296;9.516;2023-01-10T00:48:02;4.65;;;2.00;;
47812;SDS011;34221;45.296;9.516;2023-01-10T00:48:17;3.20;;;1.70;;
47812;SDS011;34221;45.296;9.516;2023-01-10T00:48:32;3.63;;;1.70;;
47812;SDS011;34221;45.296;9.516;2023-01-10T00:48:46;5.03;;;2.10;;
47812;SDS011;34221;45.296;9.516;2023-01-10T00:49:01;4.60;;;2.30;;
47812;SDS011;34221;45.296;9.516;2023-01-10T00:49:20;3.60;;;2.20;;
47812;SDS011;34221;45.296;9.516;2023-01-10T00:49:34;3.38;;;2.03;;
47812;SDS011;34221;45.296;9.516;2023-01-10T00:49:49;3.05;;;1.83;;
47812;SDS011;34221;45.296;9.516;2023-01-10T00:50:04;3.90;;;1.77;;
47812;SDS011;34221;45.296;9.516;2023-01-10T00:50:20;4.20;;;1.87;;
47812;SDS011;34221;45.296;9.516;2023-01-10T00:50:35;3.40;;;1.60;;
47812;SDS011;34221;45.296;9.516;2023-01-10T00:50:50;3.38;;;1.50;;
47812;SDS011;34221;45.296;9.516;2023-01-10T00:51:05;3.22;;;1.60;;
47812;SDS011;34221;45.296;9.516;2023-01-10T00:51:22;3.05;;;1.83;;
47812;SDS011;34221;45.296;9.516;2023-01-10T00:51:37;2.77;;;1.90;;
47812;SDS011;34221;45.296;9.516;2023-01-10T00:51:52;3.20;;;1.85;;
47812;SDS011;34221;45.296;9.516;2023-01-10T00:52:11;3.28;;;1.70;;
47812;SDS011;34221;45.296;9.516;2023-01-10T00:52:29;2.97;;;1.58;;
47812;SDS011;34221;45.296;9.516;2023-01-10T00:52:44;3.70;;;1.60;;
47812;SDS011;34221;45.296;9.516;2023-01-10T00:52:59;4.22;;;1.70;;
47812;SDS011;34221;45.296;9.516;2023-01-10T00:53:14;2.92;;;1.65;;
47812;SDS011;34221;45.296;9.516;2023-01-10T00:53:29;3.05;;;1.70;;
47812;SDS011;34221;45.296;9.516;2023-01-10T00:53:44;3.15;;;1.77;;
47812;SDS011;34221;45.296;9.516;2023-01-10T00:53:59;3.28;;;2.00;;
47812;SDS011;34221;45.296;9.516;2023-01-10T00:54:14;3.40;;;2.00;;
47812;SDS011;34221;45.296;9.516;2023-01-10T00:54:29;2.88;;;1.80;;
47812;SDS011;34221;45.296;9.516;2023-01-10T00:54:44;3.10;;;1.90;;
47812;SDS011;34221;45.296;9.516;2023-01-10T00:54:59;2.95;;;1.80;;
47812;SDS011;34221;45.296;9.516;2023-01-10T00:55:14;3.60;;;1.95;;
47812;SDS011;34221;45.296;9.516;2023-01-10T00:55:30;3.45;;;1.90;;
47812;SDS011;34221;45.296;9.516;2023-01-10T00:55:45;2.63;;;1.60;;
47812;SDS011;34221;45.296;9.516;2023-01-10T00:56:01;3.45;;;2.05;;
47812;SDS011;34221;45.296;9.516;2023-01-10T00:56:16;3.65;;;2.10;;
47812;SDS011;34221;45.296;9.516;2023-01-10T00:56:30;4.00;;;1.90;;
47812;SDS011;34221;45.296;9.516;2023-01-10T00:56:45;4.43;;;2.00;;
47812;SDS011;34221;45.296;9.516;2023-01-10T00:57:00;3.35;;;1.77;;
47812;SDS011;34221;45.296;9.516;2023-01-10T00:57:15;2.42;;;1.63;;
47812;SDS011;34221;45.296;9.516;2023-01-10T00:57:30;3.78;;;2.05;;
47812;SDS011;34221;45.296;9.516;2023-01-10T00:57:46;4.13;;;2.13;;
47812;SDS011;34221;45.296;9.516;2023-01-10T00:58:01;3.85;;;1.90;;
47812;SDS011;34221;45.296;9.516;2023-01-10T00:58:16;4.78;;;1.80;;
47812;SDS011;34221;45.296;9.516;2023-01-10T00:58:31;4.35;;;1.77;;
47812;SDS011;34221;45.296;9.516;2023-01-10T00:58:47;3.67;;;1.88;;
47812;SDS011;34221;45.296;9.516;2023-01-10T00:59:02;3.25;;;1.70;;
47812;SDS011;34221;45.296;9.516;2023-01-10T00:59:19;3.20;;;1.77;;
47812;SDS011;34221;45.296;9.516;2023-01-10T00:59:34;3.20;;;1.85;;
47812;SDS011;34221;45.296;9.516;2023-01-10T00:59:49;2.75;;;1.60;;
47812;SDS011;34221;45.296;9.516;2023-01-10T01:00:04;2.78;;;1.73;;
47812;SDS011;34221;45.296;9.516;2023-01-10T01:00:22;2.65;;;1.90;;
47812;SDS011;34221;45.296;9.516;2023-01-10T01:00:37;2.25;;;1.52;;
47812;SDS011;34221;45.296;9.516;2023-01-10T01:00:52;2.80;;;1.70;;
47812;SDS011;34221;45.296;9.516;2023-01-10T01:01:07;3.42;;;1.80;;
47812;SDS011;34221;45.296;9.516;2023-01-10T01:01:22;4.07;;;1.90;;
47812;SDS011;34221;45.296;9.516;2023-01-10T01:01:37;4.40;;;1.95;;
47812;SDS011;34221;45.296;9.516;2023-01-10T01:01:52;4.10;;;2.10;;
47812;SDS011;34221;45.296;9.516;2023-01-10T01:02:06;4.47;;;1.92;;
47812;SDS011;34221;45.296;9.516;2023-01-10T01:02:21;4.88;;;1.70;;
47812;SDS011;34221;45.296;9.516;2023-01-10T01:02:36;4.57;;;1.90;;
47812;SDS011;34221;45.296;9.516;2023-01-10T01:02:52;3.58;;;1.80;;
47812;SDS011;34221;45.296;9.516;2023-01-10T01:03:07;2.67;;;1.65;;
47812;SDS011;34221;45.296;9.516;2023-01-10T01:03:22;3.38;;;1.60;;
47812;SDS011;34221;45.296;9.516;2023-01-10T01:03:37;3.17;;;1.50;;
47812;SDS011;34221;45.296;9.516;2023-01-10T01:03:52;3.13;;;1.80;;
47812;SDS011;34221;45.296;9.516;2023-01-10T01:04:07;3.40;;;1.90;;
47812;SDS011;34221;45.296;9.516;2023-01-10T01:04:22;3.63;;;1.70;;
47812;SDS011;34221;45.296;9.516;2023-01-10T01:04:37;4.60;;;1.90;;
47812;SDS011;34221;45.296;9.516;2023-01-10T01:04:51;4.00;;;2.10;;
47812;SDS011;34221;45.296;9.516;2023-01-10T01:05:06;3.63;;;2.00;;
47812;SDS011;34221;45.296;9.516;2023-01-10T01:05:22;3.83;;;2.00;;
47812;SDS011;34221;45.296;9.516;2023-01-10T01:05:40;3.53;;;2.08;;
47812;SDS011;34221;45.296;9.516;2023-01-10T01:05:56;4.03;;;2.20;;
47812;SDS011;34221;45.296;9.516;2023-01-10T01:06:17;2.70;;;1.63;;
47812;SDS011;34221;45.296;9.516;2023-01-10T01:06:33;4.93;;;2.03;;
47812;SDS011;34221;45.296;9.516;2023-01-10T01:06:48;5.60;;;2.13;;
47812;SDS011;34221;45.296;9.516;2023-01-10T01:07:04;3.30;;;1.75;;
47812;SDS011;34221;45.296;9.516;2023-01-10T01:07:19;3.17;;;1.70;;
47812;SDS011;34221;45.296;9.516;2023-01-10T01:07:34;3.42;;;1.88;;
47812;SDS011;34221;45.296;9.516;2023-01-10T01:07:50;3.28;;;1.92;;
47812;SDS011;34221;45.296;9.516;2023-01-10T01:08:05;3.15;;;1.83;;
47812;SDS011;34221;45.296;9.516;2023-01-10T01:08:20;3.03;;;1.80;;
47812;SDS011;34221;45.296;9.516;2023-01-10T01:08:35;3.77;;;1.67;;
47812;SDS011;34221;45.296;9.516;2023-01-10T01:08:50;5.93;;;1.77;;
47812;SDS011;34221;45.296;9.516;2023-01-10T01:09:05;5.83;;;2.20;;
47812;SDS011;34221;45.296;9.516;2023-01-10T01:09:20;4.60;;;2.35;;
47812;SDS011;34221;45.296;9.516;2023-01-10T01:09:35;4.30;;;2.10;;
47812;SDS011;34221;45.296;9.516;2023-01-10T01:10:11;2.60;;;1.52;;
47812;SDS011;34221;45.296;9.516;2023-01-10T01:10:41;2.67;;;1.83;;
47812;SDS011;34221;45.296;9.516;2023-01-10T01:10:56;3.10;;;1.45;;
47812;SDS011;34221;45.296;9.516;2023-01-10T01:11:11;3.10;;;1.60;;
47812;SDS011;34221;45.296;9.516;2023-01-10T01:11:26;2.80;;;1.90;;
47812;SDS011;34221;45.296;9.516;2023-01-10T01:11:41;3.45;;;2.00;;
47812;SDS011;34221;45.296;9.516;2023-01-10T01:11:56;4.25;;;1.80;;
47812;SDS011;34221;45.296;9.516;2023-01-10T01:12:11;4.00;;;1.90;;
47812;SDS011;34221;45.296;9.516;2023-01-10T01:12:26;3.45;;;2.05;;
47812;SDS011;34221;45.296;9.516;2023-01-10T01:12:41;3.05;;;2.00;;
47812;SDS011;34221;45.296;9.516;2023-01-10T01:12:57;2.55;;;1.73;;
47812;SDS011;34221;45.296;9.516;2023-01-10T01:13:19;3.10;;;1.83;;
47812;SDS011;34221;45.296;9.516;2023-01-10T01:13:35;3.15;;;2.08;;
47812;SDS011;34221;45.296;9.516;2023-01-10T01:13:50;2.63;;;1.73;;
47812;SDS011;34221;45.296;9.516;2023-01-10T01:14:05;3.25;;;1.75;;
47812;SDS011;34221;45.296;9.516;2023-01-10T01:14:20;3.33;;;1.80;;
47812;SDS011;34221;45.296;9.516;2023-01-10T01:14:37;3.42;;;1.85;;
47812;SDS011;34221;45.296;9.516;2023-01-10T01:14:52;5.40;;;1.90;;
47812;SDS011;34221;45.296;9.516;2023-01-10T01:15:07;5.15;;;1.85;;
47812;SDS011;34221;45.296;9.516;2023-01-10T01:15:22;3.45;;;1.90;;
47812;SDS011;34221;45.296;9.516;2023-01-10T01:15:38;3.25;;;1.60;;
47812;SDS011;34221;45.296;9.516;2023-01-10T01:15:56;2.85;;;1.60;;
47812;SDS011;34221;45.296;9.516;2023-01-10T01:16:12;3.70;;;1.80;;
47812;SDS011;34221;45.296;9.516;2023-01-10T01:16:27;5.43;;;2.22;;
47812;SDS011;34221;45.296;9.516;2023-01-10T01:16:42;4.60;;;2.05;;
47812;SDS011;34221;45.296;9.516;2023-01-10T01:16:57;3.30;;;1.80;;
47812;SDS011;34221;45.296;9.516;2023-01-10T01:17:12;3.05;;;1.70;;
47812;SDS011;34221;45.296;9.516;2023-01-10T01:17:27;2.85;;;1.63;;
47812;SDS011;34221;45.296;9.516;2023-01-10T01:17:41;3.20;;;1.60;;
47812;SDS011;34221;45.296;9.516;2023-01-10T01:17:56;2.90;;;1.60;;
47812;SDS011;34221;45.296;9.516;2023-01-10T01:18:12;2.35;;;1.67;;
47812;SDS011;34221;45.296;9.516;2023-01-10T01:18:34;2.60;;;1.52;;
47812;SDS011;34221;45.296;9.516;2023-01-10T01:18:49;2.28;;;1.65;;
47812;SDS011;34221;45.296;9.516;2023-01-10T01:19:04;2.38;;;1.65;;
47812;SDS011;34221;45.296;9.516;2023-01-10T01:19:19;3.10;;;1.77;;
47812;SDS011;34221;45.296;9.516;2023-01-10T01:19:34;3.38;;;1.75;;
47812;SDS011;34221;45.296;9.516;2023-01-10T01:19:48;2.90;;;1.70;;
47812;SDS011;34221;45.296;9.516;2023-01-10T01:20:03;3.00;;;1.50;;
47812;SDS011;34221;45.296;9.516;2023-01-10T01:20:19;3.28;;;1.50;;
47812;SDS011;34221;45.296;9.516;2023-01-10T01:20:37;3.25;;;1.70;;
47812;SDS011;34221;45.296;9.516;2023-01-10T01:20:53;3.30;;;1.85;;
47812;SDS011;34221;45.296;9.516;2023-01-10T01:21:10;3.00;;;1.75;;
47812;SDS011;34221;45.296;9.516;2023-01-10T01:21:25;3.13;;;1.73;;
47812;SDS011;34221;45.296;9.516;2023-01-10T01:21:41;3.22;;;1.70;;
47812;SDS011;34221;45.296;9.516;2023-01-10T01:21:56;3.42;;;1.45;;
47812;SDS011;34221;45.296;9.516;2023-01-10T01:22:11;3.38;;;1.50;;
47812;SDS011;34221;45.296;9.516;2023-01-10T01:22:26;2.90;;;1.70;;
47812;SDS011;34221;45.296;9.516;2023-01-10T01:22:41;3.45;;;1.75;;
47812;SDS011;34221;45.296;9.516;2023-01-10T01:22:56;3.58;;;1.70;;
47812;SDS011;34221;45.296;9.516;2023-01-10T01:23:11;3.80;;;1.80;;
47812;SDS011;34221;45.296;9.516;2023-01-10T01:23:26;3.78;;;1.80;;
47812;SDS011;34221;45.296;9.516;2023-01-10T01:23:42;2.63;;;1.60;;
47812;SDS011;34221;45.296;9.516;2023-01-10T01:23:57;3.00;;;1.58;;
47812;SDS011;34221;45.296;9.516;2023-01-10T01:24:12;3.53;;;1.50;;
47812;SDS011;34221;45.296;9.516;2023-01-10T01:24:27;3.72;;;1.70;;
47812;SDS011;34221;45.296;9.516;2023-01-10T01:24:42;3.95;;;1.67;;
47812;SDS011;34221;45.296;9.516;2023-01-10T01:24:57;3.42;;;1.50;;
47812;SDS011;34221;45.296;9.516;2023-01-10T01:25:12;2.55;;;1.58;;
47812;SDS011;34221;45.296;9.516;2023-01-10T01:25:27;2.05;;;1.40;;
47812;SDS011;34221;45.296;9.516;2023-01-10T01:25:42;2.15;;;1.35;;
47812;SDS011;34221;45.296;9.516;2023-01-10T01:25:57;2.58;;;1.50;;
47812;SDS011;34221;45.296;9.516;2023-01-10T01:26:12;3.20;;;1.60;;
47812;SDS011;34221;45.296;9.516;2023-01-10T01:26:27;2.83;;;1.42;;
47812;SDS011;34221;45.296;9.516;2023-01-10T01:26:41;2.63;;;1.60;;
47812;SDS011;34221;45.296;9.516;2023-01-10T01:26:56;2.90;;;1.77;;
47812;SDS011;34221;45.296;9.516;2023-01-10T01:27:11;3.47;;;1.67;;
47812;SDS011;34221;45.296;9.516;2023-01-10T01:27:26;3.70;;;1.60;;
47812;SDS011;34221;45.296;9.516;2023-01-10T01:27:41;3.13;;;1.65;;
47812;SDS011;34221;45.296;9.516;2023-01-10T01:27:56;2.85;;;1.77;;
47812;SDS011;34221;45.296;9.516;2023-01-10T01:28:12;2.70;;;1.65;;
47812;SDS011;34221;45.296;9.516;2023-01-10T01:28:27;2.92;;;1.60;;
47812;SDS011;34221;45.296;9.516;2023-01-10T01:28:42;3.42;;;1.67;;
47812;SDS011;34221;45.296;9.516;2023-01-10T01:28:57;3.90;;;1.90;;
47812;SDS011;34221;45.296;9.516;2023-01-10T01:29:12;3.45;;;1.98;;
47812;SDS011;34221;45.296;9.516;2023-01-10T01:29:27;3.15;;;1.65;;
47812;SDS011;34221;45.296;9.516;2023-01-10T01:29:42;3.92;;;1.65;;
47812;SDS011;34221;45.296;9.516;2023-01-10T01:29:56;5.57;;;1.98;;
47812;SDS011;34221;45.296;9.516;2023-01-10T01:30:12;4.88;;;1.98;;
47812;SDS011;34221;45.296;9.516;2023-01-10T01:30:27;2.80;;;1.63;;
47812;SDS011;34221;45.296;9.516;2023-01-10T01:30:42;2.58;;;1.65;;
47812;SDS011;34221;45.296;9.516;2023-01-10T01:30:57;3.10;;;1.80;;
47812;SDS011;34221;45.296;9.516;2023-01-10T01:31:12;3.20;;;1.70;;
47812;SDS011;34221;45.296;9.516;2023-01-10T01:31:27;2.92;;;1.75;;
47812;SDS011;34221;45.296;9.516;2023-01-10T01:31:42;3.95;;;1.95;;
47812;SDS011;34221;45.296;9.516;2023-01-10T01:31:57;5.72;;;1.90;;
47812;SDS011;34221;45.296;9.516;2023-01-10T01:32:12;4.45;;;1.65;;
47812;SDS011;34221;45.296;9.516;2023-01-10T01:32:27;3.88;;;1.92;;
47812;SDS011;34221;45.296;9.516;2023-01-10T01:32:41;4.10;;;2.00;;
47812;SDS011;34221;45.296;9.516;2023-01-10T01:32:57;3.30;;;1.75;;
47812;SDS011;34221;45.296;9.516;2023-01-10T01:33:11;3.05;;;1.52;;
47812;SDS011;34221;45.296;9.516;2023-01-10T01:33:26;2.13;;;1.40;;
47812;SDS011;34221;45.296;9.516;2023-01-10T01:33:42;2.05;;;1.45;;
47812;SDS011;34221;45.296;9.516;2023-01-10T01:33:57;2.85;;;2.10;;
47812;SDS011;34221;45.296;9.516;2023-01-10T01:34:12;3.78;;;2.25;;
47812;SDS011;34221;45.296;9.516;2023-01-10T01:34:27;5.53;;;2.08;;
47812;SDS011;34221;45.296;9.516;2023-01-10T01:34:42;4.90;;;2.07;;
47812;SDS011;34221;45.296;9.516;2023-01-10T01:34:57;4.00;;;1.73;;
47812;SDS011;34221;45.296;9.516;2023-01-10T01:35:12;3.83;;;1.70;;
47812;SDS011;34221;45.296;9.516;2023-01-10T01:35:29;4.00;;;1.90;;
47812;SDS011;34221;45.296;9.516;2023-01-10T01:35:44;2.85;;;1.65;;
47812;SDS011;34221;45.296;9.516;2023-01-10T01:36:01;2.60;;;1.80;;
47812;SDS011;34221;45.296;9.516;2023-01-10T01:36:16;2.78;;;1.90;;
47812;SDS011;34221;45.296;9.516;2023-01-10T01:36:31;2.80;;;1.80;;
47812;SDS011;34221;45.296;9.516;2023-01-10T01:36:46;3.47;;;1.98;;
47812;SDS011;34221;45.296;9.516;2023-01-10T01:37:01;4.15;;;1.92;;
47812;SDS011;34221;45.296;9.516;2023-01-10T01:37:16;4.25;;;1.80;;
47812;SDS011;34221;45.296;9.516;2023-01-10T01:37:32;3.10;;;1.60;;